Monterey, CA (93940)

12:29 AM PST on December 04, 2016 (GMT -0800)
Oak Grove, Monterey CA | | Change Station

Elev 60 ft 36.60 °N, 121.88 °W | Updated 12 seconds ago

Partly Cloudy
Partly Cloudy
41.9 °F
Feels Like 42 °F
N
1.4
Wind Variable Wind from South
Gusts 3.0 mph

Today
High -- | Low -- °F
--% Chance of Precip.
Yesterday
High -- | Low -- °F
Precip. -- in
Pressure 30.18 in
Visibility 10.0 miles
Clouds Few 200 ft
Windchill 42 °F
Dew Point 40 °F
Humidity 93%
Rainfall 0.00 in
Snow Depth Not available.
7:04 AM 4:51 PM
Waxing Crescent, 21% visible
SPECI KMRY 040819Z AUTO 19003KT 10SM FEW002 08/04 A3018 RMK AO2 T00780039
Pressure 30.18 in
Visibility 10.0 miles
Clouds Few 200 ft
Windchill 42 °F
Dew Point 40 °F
Humidity 93%
Rainfall 0.00 in
Snow Depth Not available.
7:04 AM 4:51 PM
Waxing Crescent, 21% visible
SPECI KMRY 040819Z AUTO 19003KT 10SM FEW002 08/04 A3018 RMK AO2 T00780039

10-Day Weather Forecast

Almanac

Astronomy

Dec. 04, 2016 Rise Set
Actual Time
Civil Twilight
Nautical Twilight
Astronomical Twilight
Moon
Length of Visible Light
Length of Day
Tomorrow will be .
, % of the Moon is Illuminated

Today's Extremes

State Highs State Lows

Community

WunderPhotos

Upload Photos

1,955,587 photos uploaded!

WunderBlog® & News

Nearby

Air Quality

  Air Quality AQ Index Pollutant
Not available.

Snow Depth

Station Depth Elevation

Earthquake Activity

City Distance Mag. Time & Date
Minimum magnitude displayed is 2.5.

Coastal Water Temperatures

Place Temperature

Stations

Nearby Weather Stations

Station Location Temp. Windchill Dew Point Humidity Wind Precip. Elev Updated Type
                   

Watches & Warnings

There are currently no watches in effect.